Time;durP1;ratioP1;P1;durP2;ratioP2;P2;SDS_P1;SDS_P2;PMS_P1;PMS_P2;Temp;Humidity;BMP_temperature;BMP_pressure;BME280_temperature;BME280_humidity;BME280_pressure;Samples;Min_cycle;Max_cycle;Signal;HPM_P1;HPM_P2
2024/03/18 00:02:04;;;;;;;0.00;0.00;;;20.40;46.60;;;;;;5013879;28;20255;-50
2024/03/18 00:04:35;;;;;;;0.03;0.03;;;20.40;46.60;;;;;;5013835;28;20224;-47
2024/03/18 00:07:06;;;;;;;0.10;0.10;;;20.40;46.60;;;;;;5014155;28;20216;-46
2024/03/18 00:09:38;;;;;;;0.00;0.00;;;20.50;46.60;;;;;;5013291;28;20228;-47
2024/03/18 00:12:10;;;;;;;0.00;0.00;;;20.50;46.50;;;;;;5013432;28;20258;-46
2024/03/18 00:14:43;;;;;;;0.00;0.00;;;20.50;46.40;;;;;;5012861;28;20201;-48
2024/03/18 00:17:13;;;;;;;0.00;0.00;;;20.50;46.40;;;;;;5012202;28;20193;-48
2024/03/18 00:19:44;;;;;;;0.00;0.00;;;20.60;46.40;;;;;;5013521;28;20208;-45
2024/03/18 00:22:15;;;;;;;0.10;0.10;;;20.60;46.30;;;;;;5013097;28;20613;-46
2024/03/18 00:24:47;;;;;;;0.00;0.00;;;20.60;46.20;;;;;;5012781;28;20284;-47
2024/03/18 00:27:18;;;;;;;0.00;0.00;;;20.60;46.10;;;;;;5013398;28;20201;-45
2024/03/18 00:29:49;;;;;;;0.00;0.00;;;20.70;46.20;;;;;;5012318;28;20231;-46
2024/03/18 00:32:19;;;;;;;0.08;0.08;;;20.70;46.00;;;;;;5011634;28;20561;-46
2024/03/18 00:34:52;;;;;;;0.00;0.00;;;20.70;46.00;;;;;;5012569;28;20744;-48
2024/03/18 00:37:22;;;;;;;0.00;0.00;;;20.70;46.50;;;;;;5012244;28;20193;-47
2024/03/18 00:39:57;;;;;;;0.00;0.00;;;20.80;46.00;;;;;;5012899;28;20258;-47
2024/03/18 00:42:27;;;;;;;0.00;0.00;;;20.80;46.00;;;;;;5012659;28;20219;-48
2024/03/18 00:44:57;;;;;;;0.00;0.00;;;20.80;45.90;;;;;;5012205;28;20247;-52
2024/03/18 00:47:28;;;;;;;0.00;0.00;;;20.80;45.90;;;;;;5012789;28;20193;-49
2024/03/18 00:49:59;;;;;;;0.00;0.00;;;20.80;45.90;;;;;;5013311;28;20227;-47
2024/03/18 00:52:29;;;;;;;0.00;0.00;;;20.90;45.80;;;;;;5012593;28;20212;-47
2024/03/18 00:55:04;;;;;;;0.00;0.00;;;20.90;45.80;;;;;;5012976;28;20205;-46
2024/03/18 00:57:34;;;;;;;0.00;0.00;;;20.90;45.70;;;;;;5012536;28;20200;-48
2024/03/18 01:00:06;;;;;;;0.00;0.00;;;20.90;45.60;;;;;;5012271;28;20200;-47
2024/03/18 01:02:37;;;;;;;0.03;0.03;;;20.90;45.60;;;;;;5012248;28;20220;-46
2024/03/18 01:05:10;;;;;;;0.03;0.03;;;21.00;45.50;;;;;;5012826;28;20227;-46
2024/03/18 01:07:41;;;;;;;0.10;0.10;;;21.00;45.50;;;;;;5011394;28;20196;-48
2024/03/18 01:10:14;;;;;;;0.10;0.10;;;21.00;45.50;;;;;;5012240;28;20275;-47
2024/03/18 01:12:44;;;;;;;0.00;0.00;;;21.10;45.50;;;;;;5012487;28;20267;-47
2024/03/18 01:15:15;;;;;;;0.05;0.05;;;21.10;45.50;;;;;;5012613;28;20200;-48
2024/03/18 01:17:46;;;;;;;0.00;0.00;;;21.10;45.50;;;;;;5012310;28;20204;-50
2024/03/18 01:20:19;;;;;;;0.00;0.00;;;21.10;45.50;;;;;;5012422;28;20203;-48
2024/03/18 01:22:49;;;;;;;0.00;0.00;;;21.10;45.50;;;;;;5012079;28;20628;-46
2024/03/18 01:25:22;;;;;;;0.05;0.05;;;21.10;45.50;;;;;;5012066;28;20193;-47
2024/03/18 01:27:53;;;;;;;0.00;0.00;;;21.20;45.50;;;;;;5012248;28;20201;-45
2024/03/18 01:30:23;;;;;;;0.00;0.00;;;21.20;45.40;;;;;;5012193;28;20235;-47
2024/03/18 01:32:54;;;;;;;0.08;0.08;;;21.20;45.50;;;;;;5011854;28;20271;-48
2024/03/18 01:35:25;;;;;;;0.00;0.00;;;21.20;45.40;;;;;;5012125;28;20251;-49
2024/03/18 01:37:55;;;;;;;0.10;0.10;;;21.20;45.40;;;;;;5012088;28;20197;-48
2024/03/18 01:40:28;;;;;;;0.00;0.00;;;21.30;45.40;;;;;;5012003;28;20204;-47
2024/03/18 01:42:59;;;;;;;0.10;0.10;;;21.30;45.50;;;;;;5011854;28;20216;-47
2024/03/18 01:45:29;;;;;;;0.00;0.00;;;21.30;45.40;;;;;;5011533;28;20201;-46
2024/03/18 01:48:00;;;;;;;0.10;0.10;;;21.30;45.40;;;;;;5011848;28;20236;-46
2024/03/18 01:50:31;;;;;;;0.10;0.10;;;21.30;45.50;;;;;;5011177;28;20339;-45
2024/03/18 01:53:02;;;;;;;0.00;0.00;;;21.30;45.30;;;;;;5011544;28;20225;-47
2024/03/18 01:55:35;;;;;;;0.00;0.00;;;21.30;45.30;;;;;;5010516;28;20252;-49
2024/03/18 01:58:05;;;;;;;0.00;0.00;;;21.40;45.30;;;;;;5010912;28;20196;-47
2024/03/18 02:00:37;;;;;;;0.00;0.00;;;21.40;45.30;;;;;;5011124;28;20243;-48
2024/03/18 02:03:08;;;;;;;0.08;0.08;;;21.40;45.20;;;;;;5011167;28;20653;-49
2024/03/18 02:05:39;;;;;;;0.00;0.00;;;21.40;45.10;;;;;;5011558;28;20204;-50
2024/03/18 02:08:10;;;;;;;0.00;0.00;;;21.40;45.20;;;;;;5011888;28;20224;-47
2024/03/18 02:10:43;;;;;;;0.00;0.00;;;21.40;44.90;;;;;;5011417;28;20307;-46
2024/03/18 02:13:15;;;;;;;0.00;0.00;;;21.40;44.90;;;;;;5011348;28;20217;-47
2024/03/18 02:15:46;;;;;;;0.00;0.00;;;21.40;44.90;;;;;;5011164;28;20201;-50
2024/03/18 02:18:17;;;;;;;0.00;0.00;;;21.50;44.90;;;;;;5011135;28;20772;-48
2024/03/18 02:20:46;;;;;;;0.00;0.00;;;21.50;44.90;;;;;;5010874;28;20193;-48
2024/03/18 02:23:18;;;;;;;0.10;0.10;;;21.50;44.90;;;;;;5011759;28;20713;-47
2024/03/18 02:25:49;;;;;;;0.00;0.00;;;21.50;44.80;;;;;;5011377;28;20204;-49
2024/03/18 02:28:20;;;;;;;0.10;0.10;;;21.50;44.70;;;;;;5011071;28;20581;-51
2024/03/18 02:30:50;;;;;;;0.00;0.00;;;21.50;44.70;;;;;;5011683;28;20251;-47
2024/03/18 02:33:21;;;;;;;0.00;0.00;;;21.50;44.80;;;;;;5011108;28;20219;-46
2024/03/18 02:35:52;;;;;;;0.00;0.00;;;21.50;44.80;;;;;;5010172;28;20193;-50
2024/03/18 02:38:24;;;;;;;0.10;0.10;;;21.60;44.80;;;;;;5010955;28;20200;-46
2024/03/18 02:40:55;;;;;;;0.10;0.10;;;21.60;44.80;;;;;;5011241;28;20259;-51
2024/03/18 02:43:25;;;;;;;0.00;0.00;;;21.60;44.80;;;;;;5011189;28;20271;-52
2024/03/18 02:45:56;;;;;;;0.00;0.00;;;21.60;44.80;;;;;;5011104;28;20196;-47
2024/03/18 02:48:28;;;;;;;0.00;0.00;;;21.60;44.80;;;;;;5010942;28;20262;-49
2024/03/18 02:50:58;;;;;;;0.00;0.00;;;21.60;44.70;;;;;;5010819;28;20236;-47
2024/03/18 02:53:31;;;;;;;0.00;0.00;;;21.70;44.80;;;;;;5010570;28;20220;-52
2024/03/18 02:56:01;;;;;;;0.10;0.10;;;21.70;44.80;;;;;;5010746;28;20212;-54
2024/03/18 02:58:32;;;;;;;0.00;0.00;;;21.70;44.80;;;;;;5014043;28;20197;-54
2024/03/18 03:01:03;;;;;;;0.10;0.10;;;21.70;44.80;;;;;;5014242;28;20200;-54
2024/03/18 03:03:33;;;;;;;0.10;0.10;;;21.70;44.80;;;;;;5013445;28;20216;-47
2024/03/18 03:06:05;;;;;;;0.00;0.00;;;21.70;44.70;;;;;;5014517;28;20208;-52
2024/03/18 03:08:37;;;;;;;0.00;0.00;;;21.70;44.80;;;;;;5014324;28;20237;-52
2024/03/18 03:11:08;;;;;;;0.00;0.00;;;21.70;44.80;;;;;;5014627;28;20723;-50
2024/03/18 03:13:39;;;;;;;0.05;0.05;;;21.70;44.70;;;;;;5014542;28;20271;-50
2024/03/18 03:16:13;;;;;;;0.00;0.00;;;21.80;44.80;;;;;;5014526;28;20196;-49
2024/03/18 03:18:44;;;;;;;0.00;0.00;;;21.80;44.80;;;;;;5013467;28;20184;-49
2024/03/18 03:21:15;;;;;;;0.00;0.00;;;21.80;44.80;;;;;;5013524;28;20192;-52
2024/03/18 03:23:49;;;;;;;0.00;0.00;;;21.80;44.80;;;;;;5013642;28;20220;-49
2024/03/18 03:26:20;;;;;;;0.00;0.00;;;21.80;44.80;;;;;;5013958;28;20648;-46
2024/03/18 03:28:51;;;;;;;0.00;0.00;;;21.80;44.70;;;;;;5014154;28;20205;-53
2024/03/18 03:31:22;;;;;;;0.00;0.00;;;21.80;44.70;;;;;;5013689;28;20225;-50
2024/03/18 03:33:53;;;;;;;0.00;0.00;;;21.90;44.80;;;;;;5014040;28;20240;-50
2024/03/18 03:36:23;;;;;;;0.00;0.00;;;21.90;44.80;;;;;;5013841;28;20192;-52
2024/03/18 03:38:56;;;;;;;0.00;0.00;;;21.90;44.80;;;;;;5014394;28;20197;-50
2024/03/18 03:41:27;;;;;;;0.08;0.08;;;21.90;44.80;;;;;;5014609;28;20208;-49
2024/03/18 03:43:57;;;;;;;0.10;0.10;;;21.90;44.70;;;;;;5014059;28;20216;-47
2024/03/18 03:46:28;;;;;;;0.08;0.08;;;21.90;44.70;;;;;;5013758;28;20382;-46
2024/03/18 03:48:59;;;;;;;0.00;0.00;;;21.90;44.70;;;;;;5013530;28;20193;-53
2024/03/18 03:51:29;;;;;;;0.08;0.08;;;21.90;44.70;;;;;;5013872;28;20233;-49
2024/03/18 03:54:03;;;;;;;0.05;0.05;;;21.90;44.70;;;;;;5014123;28;20587;-48
2024/03/18 03:56:33;;;;;;;0.08;0.08;;;21.90;44.80;;;;;;5013683;28;20196;-49
2024/03/18 03:59:04;;;;;;;0.05;0.05;;;21.90;44.80;;;;;;5013640;28;20243;-49
2024/03/18 04:01:35;;;;;;;0.00;0.00;;;21.90;44.80;;;;;;5013301;28;20204;-50
2024/03/18 04:04:05;;;;;;;0.08;0.08;;;22.00;45.10;;;;;;5012920;28;20227;-49
2024/03/18 04:06:36;;;;;;;0.10;0.10;;;22.00;45.10;;;;;;5013147;28;20255;-47
2024/03/18 04:09:10;;;;;;;0.00;0.00;;;22.00;44.70;;;;;;5013301;28;20263;-48
2024/03/18 04:11:41;;;;;;;0.10;0.10;;;22.00;44.70;;;;;;5013349;28;20231;-47
2024/03/18 04:14:11;;;;;;;0.00;0.00;;;22.00;44.70;;;;;;5013167;28;20716;-47
2024/03/18 04:16:42;;;;;;;0.00;0.00;;;22.10;44.70;;;;;;5013446;28;20200;-48
2024/03/18 04:19:13;;;;;;;0.10;0.10;;;22.10;44.70;;;;;;5013170;28;20201;-49
2024/03/18 04:21:44;;;;;;;0.00;0.00;;;22.10;44.60;;;;;;5013720;28;20196;-48
2024/03/18 04:24:16;;;;;;;0.00;0.00;;;22.10;44.60;;;;;;5013267;28;20228;-49
2024/03/18 04:26:47;;;;;;;0.00;0.00;;;22.10;44.50;;;;;;5013135;28;20239;-49
2024/03/18 04:29:18;;;;;;;0.10;0.10;;;22.10;44.60;;;;;;5013508;28;20649;-49
2024/03/18 04:31:48;;;;;;;0.10;0.10;;;22.10;44.60;;;;;;5012950;28;20233;-46
2024/03/18 04:34:19;;;;;;;0.03;0.03;;;22.10;44.50;;;;;;5013228;28;20220;-52
2024/03/18 04:36:49;;;;;;;0.08;0.08;;;22.10;44.40;;;;;;5012645;28;20197;-48
2024/03/18 04:39:26;;;;;;;0.00;0.00;;;22.10;44.40;;;;;;5012965;28;20197;-48
2024/03/18 04:41:57;;;;;;;0.00;0.00;;;22.10;44.40;;;;;;5012821;28;20296;-47
2024/03/18 04:44:28;;;;;;;0.00;0.00;;;22.10;44.50;;;;;;5012929;28;20219;-52
2024/03/18 04:46:59;;;;;;;0.00;0.00;;;22.10;44.40;;;;;;5012748;28;20197;-46
2024/03/18 04:49:29;;;;;;;0.00;0.00;;;22.10;44.40;;;;;;5012639;28;20201;-47
2024/03/18 04:52:00;;;;;;;0.00;0.00;;;22.10;44.40;;;;;;5012616;28;20299;-49
2024/03/18 04:54:32;;;;;;;0.00;0.00;;;22.10;44.30;;;;;;5012790;28;20291;-47
2024/03/18 04:57:03;;;;;;;0.00;0.00;;;22.10;44.30;;;;;;5012563;28;20201;-50
2024/03/18 04:59:34;;;;;;;0.10;0.10;;;22.10;44.20;;;;;;5010351;28;20200;-50
2024/03/18 05:02:05;;;;;;;0.10;0.10;;;22.10;44.00;;;;;;5009752;28;20200;-50
2024/03/18 05:04:35;;;;;;;0.10;0.10;;;22.10;43.80;;;;;;5012407;28;20212;-49
2024/03/18 05:07:06;;;;;;;0.10;0.10;;;22.10;43.80;;;;;;5012293;28;20317;-50
2024/03/18 05:09:39;;;;;;;0.10;0.10;;;22.10;43.60;;;;;;5012226;28;20549;-46
2024/03/18 05:12:10;;;;;;;0.10;0.10;;;22.10;43.60;;;;;;5012236;28;20240;-50
2024/03/18 05:14:40;;;;;;;0.08;0.08;;;22.10;43.60;;;;;;5012212;28;20200;-47
2024/03/18 05:17:11;;;;;;;0.00;0.00;;;22.10;43.50;;;;;;5011656;28;20200;-50
2024/03/18 05:19:42;;;;;;;0.10;0.10;;;22.10;43.50;;;;;;5011527;28;21337;-51
2024/03/18 05:22:13;;;;;;;0.00;0.00;;;22.00;43.40;;;;;;5011938;28;20689;-49
2024/03/18 05:24:45;;;;;;;0.10;0.10;;;22.00;43.30;;;;;;5011625;28;20200;-55
2024/03/18 05:27:16;;;;;;;0.05;0.05;;;22.00;43.20;;;;;;5011663;28;20197;-63
2024/03/18 05:29:47;;;;;;;0.00;0.00;;;22.00;42.50;;;;;;5012066;28;20201;-61
2024/03/18 05:32:19;;;;;;;0.03;0.03;;;21.90;41.60;;;;;;5011301;28;20220;-47
2024/03/18 05:34:50;;;;;;;0.00;0.00;;;21.90;41.20;;;;;;5011871;28;20201;-50
2024/03/18 05:37:21;;;;;;;0.00;0.00;;;21.80;41.20;;;;;;5012113;28;20192;-47
2024/03/18 05:39:53;;;;;;;0.10;0.10;;;21.70;41.30;;;;;;5011761;28;20247;-47
2024/03/18 05:42:24;;;;;;;0.10;0.10;;;21.60;41.50;;;;;;5011856;28;20300;-50
2024/03/18 05:44:55;;;;;;;0.10;0.10;;;21.60;41.80;;;;;;5011404;28;20260;-48
2024/03/18 05:47:25;;;;;;;0.00;0.00;;;21.60;42.00;;;;;;5011931;28;20664;-51
2024/03/18 05:49:56;;;;;;;0.00;0.00;;;21.60;42.10;;;;;;5011882;28;20210;-48
2024/03/18 05:52:27;;;;;;;0.10;0.10;;;21.50;42.70;;;;;;5011389;28;20575;-49
2024/03/18 05:55:00;;;;;;;0.10;0.10;;;21.50;42.00;;;;;;5011962;28;20209;-47
2024/03/18 05:57:30;;;;;;;0.08;0.08;;;21.50;42.00;;;;;;5012062;28;20197;-45
2024/03/18 06:00:01;;;;;;;0.00;0.00;;;21.50;42.00;;;;;;5011693;28;20200;-44
2024/03/18 06:02:32;;;;;;;0.10;0.10;;;21.60;42.10;;;;;;5012142;28;20203;-44
2024/03/18 06:05:03;;;;;;;0.05;0.05;;;21.50;42.10;;;;;;5012010;28;20201;-46
2024/03/18 06:07:33;;;;;;;0.00;0.00;;;21.60;42.10;;;;;;5011515;28;20192;-51
2024/03/18 06:10:06;;;;;;;0.00;0.00;;;21.50;42.00;;;;;;5011361;28;20196;-48
2024/03/18 06:12:37;;;;;;;0.00;0.00;;;21.50;42.00;;;;;;5010053;28;20303;-48
2024/03/18 06:15:09;;;;;;;0.05;0.05;;;21.50;42.10;;;;;;5005690;28;20201;-49
2024/03/18 06:17:39;;;;;;;0.05;0.05;;;21.50;42.10;;;;;;4992031;28;20193;-49
2024/03/18 06:20:11;;;;;;;0.00;0.00;;;21.50;42.20;;;;;;4991377;28;20209;-46
2024/03/18 06:22:41;;;;;;;0.00;0.00;;;21.50;42.20;;;;;;4991087;28;20635;-48
2024/03/18 06:28:00;;;;;;;0.00;0.00;;;21.50;42.30;;;;;;5011062;28;20216;-47
2024/03/18 06:30:31;;;;;;;0.00;0.00;;;21.50;42.50;;;;;;5010992;28;20193;-48
2024/03/18 06:33:02;;;;;;;0.10;0.10;;;21.60;42.60;;;;;;5014933;28;20274;-48
2024/03/18 06:35:32;;;;;;;0.10;0.10;;;21.60;43.30;;;;;;5015036;28;20251;-48
2024/03/18 06:38:03;;;;;;;0.00;0.00;;;21.60;42.70;;;;;;5015109;28;20211;-46
2024/03/18 06:40:37;;;;;;;0.10;0.10;;;21.60;42.60;;;;;;5015119;28;20288;-48
2024/03/18 06:43:09;;;;;;;0.00;0.00;;;21.60;42.70;;;;;;5014648;28;20215;-45
2024/03/18 06:45:40;;;;;;;0.00;0.00;;;21.60;42.70;;;;;;5014776;28;20204;-47
2024/03/18 06:48:11;;;;;;;0.08;0.08;;;21.60;42.60;;;;;;5014944;28;20201;-46
2024/03/18 06:50:42;;;;;;;0.00;0.00;;;21.60;42.70;;;;;;5014716;28;20688;-48
2024/03/18 06:53:13;;;;;;;0.10;0.10;;;21.60;42.60;;;;;;5014335;28;20219;-47
2024/03/18 06:55:45;;;;;;;0.10;0.10;;;21.60;42.60;;;;;;5014553;28;20677;-47
2024/03/18 06:58:18;;;;;;;0.00;0.00;;;21.60;42.70;;;;;;5014638;28;20197;-46
2024/03/18 07:00:48;;;;;;;0.00;0.00;;;21.60;42.70;;;;;;5013869;28;20204;-50
2024/03/18 07:03:21;;;;;;;0.10;0.10;;;21.60;42.80;;;;;;5014140;28;20221;-48
2024/03/18 07:05:51;;;;;;;0.00;0.00;;;21.60;42.80;;;;;;5014405;28;20196;-47
2024/03/18 07:08:22;;;;;;;0.00;0.00;;;21.60;42.80;;;;;;4994797;28;20201;-47
2024/03/18 07:10:54;;;;;;;0.10;0.10;;;21.60;42.90;;;;;;4994933;28;20205;-48
2024/03/18 07:13:25;;;;;;;0.00;0.00;;;21.60;43.00;;;;;;4994962;28;20697;-46
2024/03/18 07:15:58;;;;;;;0.10;0.10;;;21.60;43.00;;;;;;4994329;28;20198;-47
2024/03/18 07:18:29;;;;;;;0.00;0.00;;;21.60;43.10;;;;;;4995256;28;20204;-48
2024/03/18 07:20:59;;;;;;;0.00;0.00;;;21.60;43.10;;;;;;4994429;28;20212;-48
2024/03/18 07:23:30;;;;;;;0.00;0.00;;;21.60;43.10;;;;;;4997325;28;20217;-48
2024/03/18 07:26:02;;;;;;;0.00;0.00;;;21.60;43.20;;;;;;5013908;28;20376;-45
2024/03/18 07:28:33;;;;;;;0.08;0.08;;;21.60;43.20;;;;;;5014302;28;20336;-48
2024/03/18 07:31:04;;;;;;;0.10;0.10;;;21.60;43.10;;;;;;5013628;28;20220;-46
2024/03/18 07:33:35;;;;;;;0.00;0.00;;;21.60;43.10;;;;;;5013507;28;20576;-48
2024/03/18 07:36:06;;;;;;;0.10;0.10;;;21.60;43.10;;;;;;5013276;28;20202;-49
2024/03/18 07:38:36;;;;;;;0.10;0.10;;;21.60;43.10;;;;;;5013896;28;20208;-50
2024/03/18 07:41:09;;;;;;;0.05;0.05;;;21.60;43.10;;;;;;5037577;23;20233;-49
2024/03/18 07:43:42;;;;;;;0.10;0.10;;;21.60;43.10;;;;;;5072601;28;20219;-53
2024/03/18 07:46:12;;;;;;;0.00;0.00;;;21.60;43.10;;;;;;5073159;28;20191;-43
2024/03/18 07:48:43;;;;;;;0.00;0.00;;;21.60;43.50;;;;;;5073387;28;20221;-43
2024/03/18 07:51:13;;;;;;;0.00;0.00;;;21.60;44.00;;;;;;5073819;28;20222;-42
2024/03/18 07:53:44;;;;;;;0.00;0.00;;;21.60;44.10;;;;;;5068616;28;20631;-43
2024/03/18 07:56:17;;;;;;;0.00;0.00;;;21.60;44.30;;;;;;5062304;28;20202;-43
2024/03/18 07:58:47;;;;;;;0.00;0.00;;;21.60;44.20;;;;;;5048819;28;20203;-44
2024/03/18 08:01:18;;;;;;;0.00;0.00;;;21.60;44.20;;;;;;5055905;28;20272;-44
2024/03/18 08:03:48;;;;;;;0.00;0.00;;;21.60;44.20;;;;;;5069891;28;20223;-47
2024/03/18 08:06:20;;;;;;;0.10;0.10;;;21.60;44.10;;;;;;5069297;28;20260;-44
2024/03/18 08:08:50;;;;;;;0.10;0.10;;;21.60;44.10;;;;;;5070084;28;20198;-44
2024/03/18 08:11:23;;;;;;;0.00;0.00;;;21.60;44.10;;;;;;5050488;28;20240;-44
2024/03/18 08:13:53;;;;;;;0.10;0.10;;;21.60;44.00;;;;;;5061788;28;20214;-43
2024/03/18 08:16:24;;;;;;;0.10;0.10;;;21.60;44.00;;;;;;5068954;28;20210;-45
2024/03/18 08:18:55;;;;;;;0.10;0.10;;;21.60;44.00;;;;;;5069729;28;20202;-45
2024/03/18 08:21:25;;;;;;;0.00;0.00;;;21.60;44.00;;;;;;5069465;28;20589;-52
2024/03/18 08:23:56;;;;;;;0.00;0.00;;;21.60;44.00;;;;;;5065736;28;20248;-45
2024/03/18 08:26:29;;;;;;;0.00;0.00;;;21.50;43.90;;;;;;5048844;28;20195;-49
2024/03/18 08:28:59;;;;;;;0.00;0.00;;;21.50;43.90;;;;;;5048581;28;20199;-46
2024/03/18 08:31:31;;;;;;;0.00;0.00;;;21.50;43.90;;;;;;5049068;28;20691;-43
2024/03/18 08:34:02;;;;;;;0.00;0.00;;;21.50;43.90;;;;;;5049196;28;20227;-55
2024/03/18 08:36:33;;;;;;;0.00;0.00;;;21.50;43.80;;;;;;5049226;28;20262;-55
2024/03/18 08:39:03;;;;;;;0.00;0.00;;;21.50;43.80;;;;;;5048979;28;20664;-56
2024/03/18 08:41:36;;;;;;;0.10;0.10;;;21.50;43.80;;;;;;5065393;23;20226;-51
2024/03/18 08:44:07;;;;;;;0.00;0.00;;;21.50;43.80;;;;;;5067410;28;20604;-44
2024/03/18 08:46:38;;;;;;;0.00;0.00;;;21.50;43.80;;;;;;5068143;28;20248;-44
2024/03/18 08:49:13;;;;;;;0.00;0.00;;;21.40;43.80;;;;;;5068700;28;20207;-44
2024/03/18 08:51:44;;;;;;;0.00;0.00;;;21.50;43.90;;;;;;5048512;28;20276;-46
2024/03/18 08:54:16;;;;;;;0.10;0.10;;;21.40;43.80;;;;;;5048135;28;20226;-44
2024/03/18 08:56:48;;;;;;;0.00;0.00;;;21.40;43.80;;;;;;5072299;28;20197;-44
2024/03/18 08:59:19;;;;;;;0.00;0.00;;;21.40;43.80;;;;;;5048678;28;20687;-44
2024/03/18 09:01:50;;;;;;;0.00;0.00;;;21.40;43.80;;;;;;5048462;28;20567;-45
2024/03/18 09:04:21;;;;;;;0.10;0.10;;;21.40;43.80;;;;;;5047557;28;20219;-45
2024/03/18 09:06:52;;;;;;;0.00;0.00;;;21.40;43.80;;;;;;5048432;28;20206;-47
2024/03/18 09:09:23;;;;;;;0.08;0.08;;;21.40;43.80;;;;;;5055910;28;20279;-44
2024/03/18 09:11:55;;;;;;;0.00;0.00;;;21.40;43.80;;;;;;5068141;28;20854;-44
2024/03/18 09:14:26;;;;;;;0.00;0.00;;;21.30;43.70;;;;;;5064312;28;20703;-45
2024/03/18 09:16:57;;;;;;;0.10;0.10;;;21.30;43.70;;;;;;5060336;28;20196;-45
2024/03/18 09:19:27;;;;;;;0.05;0.05;;;21.30;43.80;;;;;;5047606;28;20683;-46
2024/03/18 09:21:59;;;;;;;0.08;0.08;;;21.30;43.80;;;;;;5057623;28;20554;-44
2024/03/18 09:24:29;;;;;;;0.00;0.00;;;21.30;43.80;;;;;;5063884;28;20215;-44
2024/03/18 09:27:04;;;;;;;0.00;0.00;;;21.20;43.80;;;;;;5048719;28;20678;-46
2024/03/18 09:29:35;;;;;;;0.00;0.00;;;21.20;43.80;;;;;;5047723;28;20203;-48
2024/03/18 09:32:05;;;;;;;0.10;0.10;;;21.20;43.80;;;;;;5047002;28;20292;-46
2024/03/18 09:34:36;;;;;;;0.00;0.00;;;21.20;43.90;;;;;;5048093;28;20230;-50
2024/03/18 09:37:07;;;;;;;0.00;0.00;;;21.20;43.90;;;;;;5047222;28;20602;-48
2024/03/18 09:39:38;;;;;;;0.00;0.00;;;21.20;43.90;;;;;;5048019;28;20206;-50
2024/03/18 09:42:12;;;;;;;0.00;0.00;;;21.10;43.90;;;;;;5047167;28;20207;-46
2024/03/18 09:44:43;;;;;;;0.00;0.00;;;21.10;43.90;;;;;;5047200;28;20654;-45
2024/03/18 09:47:22;;;;;;;0.00;0.00;;;21.10;43.90;;;;;;5047506;28;20203;-44
2024/03/18 09:49:53;;;;;;;0.10;0.10;;;21.10;43.90;;;;;;5054091;28;20654;-48
2024/03/18 09:52:27;;;;;;;0.00;0.00;;;21.10;43.90;;;;;;5067199;28;20222;-46
2024/03/18 09:54:59;;;;;;;0.00;0.00;;;21.10;43.90;;;;;;5067116;28;20202;-48
2024/03/18 09:57:33;;;;;;;0.10;0.10;;;21.10;43.90;;;;;;5058903;28;20203;-48
2024/03/18 10:00:03;;;;;;;0.10;0.10;;;21.10;43.90;;;;;;5047231;28;20206;-47
2024/03/18 10:02:34;;;;;;;0.10;0.10;;;21.00;43.90;;;;;;5046728;28;20254;-47
2024/03/18 10:05:09;;;;;;;0.00;0.00;;;21.10;44.60;;;;;;5047008;28;20218;-46
2024/03/18 10:07:40;;;;;;;0.10;0.10;;;21.10;44.00;;;;;;5047369;28;20268;-49
2024/03/18 10:10:20;;;;;;;0.00;0.00;;;21.00;44.00;;;;;;5047262;28;20630;-45
2024/03/18 10:12:53;;;;;;;0.00;0.00;;;21.00;44.00;;;;;;5047242;28;20242;-49
2024/03/18 10:15:23;;;;;;;0.10;0.10;;;21.00;44.00;;;;;;5047169;28;20206;-47
2024/03/18 10:17:56;;;;;;;0.00;0.00;;;21.00;44.00;;;;;;5047683;28;20757;-46
2024/03/18 10:20:27;;;;;;;0.00;0.00;;;21.00;44.10;;;;;;5050847;28;20326;-48
2024/03/18 10:22:58;;;;;;;0.00;0.00;;;20.90;44.00;;;;;;5067079;28;20264;-44
2024/03/18 10:25:29;;;;;;;0.00;0.00;;;20.90;44.10;;;;;;5048889;28;20203;-49
2024/03/18 10:28:01;;;;;;;0.00;0.00;;;20.90;44.10;;;;;;5047280;28;20207;-46
2024/03/18 10:30:32;;;;;;;0.10;0.10;;;20.90;44.10;;;;;;5047199;28;20554;-47
2024/03/18 10:33:06;;;;;;;0.10;0.10;;;20.90;44.20;;;;;;5059089;28;20230;-48
2024/03/18 10:35:37;;;;;;;0.00;0.00;;;20.90;44.30;;;;;;5047344;28;20284;-48
2024/03/18 10:38:09;;;;;;;0.00;0.00;;;20.90;44.20;;;;;;5047265;28;20199;-45
2024/03/18 10:40:40;;;;;;;0.10;0.10;;;20.90;44.20;;;;;;5046955;28;20199;-44
2024/03/18 10:43:14;;;;;;;0.00;0.00;;;20.90;44.30;;;;;;5064760;28;20292;-46
2024/03/18 10:45:47;;;;;;;0.00;0.00;;;20.90;44.30;;;;;;5059717;28;20188;-47
2024/03/18 10:48:20;;;;;;;0.00;0.00;;;20.90;44.30;;;;;;5060452;28;20248;-45
2024/03/18 10:50:54;;;;;;;0.00;0.00;;;20.80;44.30;;;;;;5057588;28;20270;-46
2024/03/18 10:53:26;;;;;;;0.00;0.00;;;20.80;44.30;;;;;;5061054;28;20226;-48
2024/03/18 10:55:58;;;;;;;0.00;0.00;;;20.80;44.30;;;;;;5059202;28;20269;-47
2024/03/18 10:58:32;;;;;;;0.03;0.03;;;20.80;44.40;;;;;;5061216;28;20256;-47
2024/03/18 11:01:03;;;;;;;0.10;0.10;;;20.80;44.50;;;;;;5060763;28;20199;-45
2024/03/18 11:03:33;;;;;;;0.10;0.10;;;20.70;44.40;;;;;;5059478;28;20691;-46
2024/03/18 11:06:04;;;;;;;0.00;0.00;;;20.70;44.40;;;;;;5059483;28;20199;-46
2024/03/18 11:08:35;;;;;;;0.00;0.00;;;20.70;44.50;;;;;;5059174;28;20198;-45
2024/03/18 11:11:06;;;;;;;0.00;0.00;;;20.70;44.50;;;;;;5059026;28;20261;-45
2024/03/18 11:13:43;;;;;;;0.00;0.00;;;20.70;44.60;;;;;;5060315;28;20276;-47
2024/03/18 11:16:15;;;;;;;0.10;0.10;;;20.70;44.60;;;;;;5058080;28;20268;-54
2024/03/18 11:18:46;;;;;;;0.10;0.10;;;20.70;44.60;;;;;;5061030;28;20195;-48
2024/03/18 11:21:21;;;;;;;0.10;0.10;;;20.70;44.60;;;;;;5062039;28;20191;-46
2024/03/18 11:24:00;;;;;;;0.00;0.00;;;20.70;44.60;;;;;;5062293;28;20203;-46
2024/03/18 11:26:35;;;;;;;0.10;0.10;;;20.70;44.60;;;;;;5061498;28;20202;-46
2024/03/18 11:29:11;;;;;;;0.00;0.00;;;20.60;44.60;;;;;;5064484;28;20534;-47
2024/03/18 11:31:42;;;;;;;0.00;0.00;;;20.60;44.60;;;;;;5056372;28;20218;-46
2024/03/18 11:34:19;;;;;;;0.00;0.00;;;20.60;44.60;;;;;;5053223;28;20235;-46
2024/03/18 11:36:51;;;;;;;0.00;0.00;;;20.60;44.60;;;;;;5053601;28;20202;-47
2024/03/18 11:39:22;;;;;;;0.00;0.00;;;20.60;44.60;;;;;;5053485;28;20207;-47
2024/03/18 11:42:03;;;;;;;0.00;0.00;;;20.60;44.70;;;;;;5054472;28;20261;-45
2024/03/18 11:44:36;;;;;;;0.00;0.00;;;20.60;44.70;;;;;;5053944;28;20216;-44
2024/03/18 11:47:08;;;;;;;0.10;0.10;;;20.50;44.60;;;;;;5053980;28;20203;-45
2024/03/18 11:49:39;;;;;;;0.00;0.00;;;20.50;44.70;;;;;;5054205;28;20199;-45
2024/03/18 11:52:10;;;;;;;0.00;0.00;;;20.50;44.70;;;;;;5053071;28;20212;-49
2024/03/18 11:54:41;;;;;;;0.10;0.10;;;20.50;44.70;;;;;;5059777;28;20199;-46
2024/03/18 11:57:14;;;;;;;0.10;0.10;;;20.50;44.70;;;;;;5070160;28;20195;-45
2024/03/18 11:59:47;;;;;;;0.00;0.00;;;20.50;44.80;;;;;;5063320;28;20275;-46
2024/03/18 12:02:18;;;;;;;0.00;0.00;;;20.50;44.70;;;;;;5062078;28;20558;-46
2024/03/18 12:04:48;;;;;;;0.00;0.00;;;20.50;45.40;;;;;;5062536;28;20187;-46
2024/03/18 12:07:19;;;;;;;0.03;0.03;;;20.50;44.80;;;;;;5062112;28;20191;-46
2024/03/18 12:09:50;;;;;;;0.00;0.00;;;20.50;44.80;;;;;;5062296;28;20187;-45
2024/03/18 12:12:21;;;;;;;0.00;0.00;;;20.50;44.70;;;;;;5062105;28;20188;-52
2024/03/18 12:14:53;;;;;;;0.03;0.03;;;20.50;44.80;;;;;;5061733;28;20186;-47
2024/03/18 12:17:25;;;;;;;0.10;0.10;;;20.50;44.70;;;;;;5053034;28;20591;-46
2024/03/18 12:20:00;;;;;;;0.00;0.00;;;20.40;44.70;;;;;;5053012;28;20188;-47
2024/03/18 12:22:31;;;;;;;0.00;0.00;;;20.40;44.70;;;;;;5052857;28;20202;-44
2024/03/18 12:30:37;;;;;;;0.00;0.00;;;20.40;44.80;;;;;;5053253;28;20218;-46
2024/03/18 12:33:09;;;;;;;0.00;0.00;;;20.40;44.80;;;;;;5053152;28;20231;-45
2024/03/18 12:35:42;;;;;;;0.10;0.10;;;20.30;44.80;;;;;;5052963;28;20239;-47
2024/03/18 12:38:14;;;;;;;0.00;0.00;;;20.30;44.80;;;;;;5052271;28;20249;-47
2024/03/18 12:40:45;;;;;;;0.10;0.10;;;20.30;44.80;;;;;;5052398;28;20208;-47
2024/03/18 12:43:16;;;;;;;0.00;0.00;;;20.30;44.80;;;;;;5052717;28;20703;-47
2024/03/18 12:45:49;;;;;;;0.10;0.10;;;20.30;44.80;;;;;;5052234;28;20196;-48
2024/03/18 12:48:20;;;;;;;0.00;0.00;;;20.30;44.90;;;;;;5052983;28;20256;-46
2024/03/18 12:50:52;;;;;;;0.10;0.10;;;20.30;44.90;;;;;;5052877;28;20227;-46
2024/03/18 12:53:23;;;;;;;0.00;0.00;;;20.30;44.90;;;;;;5052618;28;20643;-49
2024/03/18 12:55:53;;;;;;;0.10;0.10;;;20.30;44.90;;;;;;5052341;28;20562;-47
2024/03/18 12:58:24;;;;;;;0.10;0.10;;;20.20;44.80;;;;;;5052818;28;20199;-47
2024/03/18 13:00:57;;;;;;;0.10;0.10;;;20.20;44.80;;;;;;5052034;28;20223;-46
2024/03/18 13:03:28;;;;;;;0.00;0.00;;;20.20;44.80;;;;;;5052106;28;20218;-52
2024/03/18 13:05:59;;;;;;;0.10;0.10;;;20.20;44.90;;;;;;5061222;28;20623;-51
2024/03/18 13:08:30;;;;;;;0.10;0.10;;;20.20;44.90;;;;;;5060806;28;20183;-52
2024/03/18 13:11:02;;;;;;;0.00;0.00;;;20.20;44.90;;;;;;5051066;28;20191;-51
2024/03/18 13:13:35;;;;;;;0.10;0.10;;;20.20;44.90;;;;;;5050820;28;20219;-47
2024/03/18 13:16:09;;;;;;;0.00;0.00;;;20.20;44.90;;;;;;5050853;28;20550;-48
2024/03/18 13:18:40;;;;;;;0.00;0.00;;;20.20;44.90;;;;;;5061273;28;20639;-46